sensor_id;sensor_type;location;lat;lon;timestamp;P1;durP1;ratioP1;P2;durP2;ratioP2
5674;SDS011;2860;54.284;10.158;2023-08-31T00:01:08;30.48;;;23.52;;
5674;SDS011;2860;54.284;10.158;2023-08-31T00:03:34;33.65;;;23.92;;
5674;SDS011;2860;54.284;10.158;2023-08-31T00:06:03;32.03;;;24.15;;
5674;SDS011;2860;54.284;10.158;2023-08-31T00:08:29;29.63;;;23.95;;
5674;SDS011;2860;54.284;10.158;2023-08-31T00:10:59;32.22;;;25.02;;
5674;SDS011;2860;54.284;10.158;2023-08-31T00:13:25;32.58;;;24.83;;
5674;SDS011;2860;54.284;10.158;2023-08-31T00:15:53;29.35;;;21.83;;
5674;SDS011;2860;54.284;10.158;2023-08-31T00:18:20;27.27;;;23.45;;
5674;SDS011;2860;54.284;10.158;2023-08-31T00:20:46;30.10;;;24.30;;
5674;SDS011;2860;54.284;10.158;2023-08-31T00:23:11;35.85;;;25.90;;
5674;SDS011;2860;54.284;10.158;2023-08-31T00:25:37;25.67;;;22.08;;
5674;SDS011;2860;54.284;10.158;2023-08-31T00:28:02;27.85;;;23.25;;
5674;SDS011;2860;54.284;10.158;2023-08-31T00:30:30;33.97;;;25.38;;
5674;SDS011;2860;54.284;10.158;2023-08-31T00:32:57;39.80;;;24.23;;
5674;SDS011;2860;54.284;10.158;2023-08-31T00:35:24;32.95;;;24.23;;
5674;SDS011;2860;54.284;10.158;2023-08-31T00:37:51;34.90;;;24.17;;
5674;SDS011;2860;54.284;10.158;2023-08-31T00:40:16;30.10;;;23.27;;
5674;SDS011;2860;54.284;10.158;2023-08-31T00:42:43;34.83;;;23.48;;
5674;SDS011;2860;54.284;10.158;2023-08-31T00:45:08;31.98;;;23.20;;
5674;SDS011;2860;54.284;10.158;2023-08-31T00:47:35;32.60;;;24.35;;
5674;SDS011;2860;54.284;10.158;2023-08-31T00:50:00;32.95;;;23.80;;
5674;SDS011;2860;54.284;10.158;2023-08-31T00:52:27;30.10;;;23.98;;
5674;SDS011;2860;54.284;10.158;2023-08-31T00:54:52;33.05;;;23.70;;
5674;SDS011;2860;54.284;10.158;2023-08-31T00:57:19;29.42;;;22.70;;
5674;SDS011;2860;54.284;10.158;2023-08-31T00:59:44;32.33;;;23.98;;
5674;SDS011;2860;54.284;10.158;2023-08-31T01:10:31;29.00;;;22.52;;
5674;SDS011;2860;54.284;10.158;2023-08-31T01:13:08;31.83;;;22.23;;
5674;SDS011;2860;54.284;10.158;2023-08-31T01:15:45;28.98;;;22.40;;
5674;SDS011;2860;54.284;10.158;2023-08-31T01:18:16;27.92;;;22.40;;
5674;SDS011;2860;54.284;10.158;2023-08-31T01:20:48;29.83;;;21.02;;
5674;SDS011;2860;54.284;10.158;2023-08-31T01:23:20;28.92;;;21.80;;
5674;SDS011;2860;54.284;10.158;2023-08-31T01:25:51;28.88;;;21.55;;
5674;SDS011;2860;54.284;10.158;2023-08-31T01:28:17;31.02;;;21.30;;
5674;SDS011;2860;54.284;10.158;2023-08-31T01:30:43;32.38;;;22.20;;
5674;SDS011;2860;54.284;10.158;2023-08-31T01:33:08;28.98;;;21.17;;
5674;SDS011;2860;54.284;10.158;2023-08-31T01:35:36;27.58;;;19.83;;
5674;SDS011;2860;54.284;10.158;2023-08-31T01:38:08;26.00;;;19.67;;
5674;SDS011;2860;54.284;10.158;2023-08-31T01:40:38;24.95;;;18.88;;
5674;SDS011;2860;54.284;10.158;2023-08-31T01:43:10;21.10;;;17.30;;
5674;SDS011;2860;54.284;10.158;2023-08-31T01:45:36;24.67;;;18.60;;
5674;SDS011;2860;54.284;10.158;2023-08-31T01:48:03;22.65;;;17.83;;
5674;SDS011;2860;54.284;10.158;2023-08-31T01:50:29;21.70;;;16.55;;
5674;SDS011;2860;54.284;10.158;2023-08-31T01:52:54;20.55;;;16.80;;
5674;SDS011;2860;54.284;10.158;2023-08-31T01:55:20;22.30;;;17.10;;
5674;SDS011;2860;54.284;10.158;2023-08-31T01:57:47;20.58;;;16.63;;
5674;SDS011;2860;54.284;10.158;2023-08-31T02:00:13;21.48;;;16.60;;
5674;SDS011;2860;54.284;10.158;2023-08-31T02:02:40;26.10;;;16.38;;
5674;SDS011;2860;54.284;10.158;2023-08-31T02:05:06;18.70;;;16.42;;
5674;SDS011;2860;54.284;10.158;2023-08-31T02:07:32;21.00;;;16.35;;
5674;SDS011;2860;54.284;10.158;2023-08-31T02:09:58;22.95;;;17.20;;
5674;SDS011;2860;54.284;10.158;2023-08-31T02:12:23;19.73;;;16.58;;
5674;SDS011;2860;54.284;10.158;2023-08-31T02:14:49;21.55;;;16.63;;
5674;SDS011;2860;54.284;10.158;2023-08-31T02:17:14;21.92;;;16.38;;
5674;SDS011;2860;54.284;10.158;2023-08-31T02:19:40;18.10;;;16.08;;
5674;SDS011;2860;54.284;10.158;2023-08-31T02:22:05;22.85;;;16.60;;
5674;SDS011;2860;54.284;10.158;2023-08-31T02:24:31;24.80;;;16.42;;
5674;SDS011;2860;54.284;10.158;2023-08-31T02:26:56;21.45;;;16.88;;
5674;SDS011;2860;54.284;10.158;2023-08-31T02:29:22;19.30;;;15.73;;
5674;SDS011;2860;54.284;10.158;2023-08-31T02:31:48;19.42;;;15.93;;
5674;SDS011;2860;54.284;10.158;2023-08-31T02:34:13;20.42;;;16.17;;
5674;SDS011;2860;54.284;10.158;2023-08-31T02:36:39;24.10;;;16.73;;
5674;SDS011;2860;54.284;10.158;2023-08-31T02:39:04;21.77;;;15.85;;
5674;SDS011;2860;54.284;10.158;2023-08-31T02:41:31;20.10;;;16.40;;
5674;SDS011;2860;54.284;10.158;2023-08-31T02:43:56;22.17;;;17.88;;
5674;SDS011;2860;54.284;10.158;2023-08-31T02:46:22;23.17;;;15.88;;
5674;SDS011;2860;54.284;10.158;2023-08-31T02:48:48;22.45;;;15.73;;
5674;SDS011;2860;54.284;10.158;2023-08-31T02:51:13;24.45;;;16.15;;
5674;SDS011;2860;54.284;10.158;2023-08-31T02:53:39;20.08;;;15.57;;
5674;SDS011;2860;54.284;10.158;2023-08-31T02:56:04;23.73;;;17.90;;
5674;SDS011;2860;54.284;10.158;2023-08-31T02:58:30;23.90;;;16.85;;
5674;SDS011;2860;54.284;10.158;2023-08-31T03:01:05;29.63;;;17.75;;
5674;SDS011;2860;54.284;10.158;2023-08-31T03:03:36;28.13;;;18.83;;
5674;SDS011;2860;54.284;10.158;2023-08-31T03:06:02;21.15;;;17.15;;
5674;SDS011;2860;54.284;10.158;2023-08-31T03:08:27;27.48;;;18.30;;
5674;SDS011;2860;54.284;10.158;2023-08-31T03:10:53;22.95;;;17.15;;
5674;SDS011;2860;54.284;10.158;2023-08-31T03:13:20;22.85;;;17.23;;
5674;SDS011;2860;54.284;10.158;2023-08-31T03:15:45;26.70;;;18.23;;
5674;SDS011;2860;54.284;10.158;2023-08-31T03:18:11;23.30;;;18.90;;
5674;SDS011;2860;54.284;10.158;2023-08-31T03:20:36;18.77;;;15.63;;
5674;SDS011;2860;54.284;10.158;2023-08-31T03:23:02;27.38;;;18.23;;
5674;SDS011;2860;54.284;10.158;2023-08-31T03:25:27;24.25;;;17.95;;
5674;SDS011;2860;54.284;10.158;2023-08-31T03:27:53;23.70;;;17.23;;
5674;SDS011;2860;54.284;10.158;2023-08-31T03:30:19;27.10;;;17.90;;
5674;SDS011;2860;54.284;10.158;2023-08-31T03:32:44;25.55;;;18.45;;
5674;SDS011;2860;54.284;10.158;2023-08-31T03:35:10;28.42;;;18.33;;
5674;SDS011;2860;54.284;10.158;2023-08-31T03:37:36;22.88;;;18.60;;
5674;SDS011;2860;54.284;10.158;2023-08-31T03:40:02;30.70;;;19.25;;
5674;SDS011;2860;54.284;10.158;2023-08-31T03:42:29;24.42;;;18.58;;
5674;SDS011;2860;54.284;10.158;2023-08-31T03:44:54;27.23;;;18.40;;
5674;SDS011;2860;54.284;10.158;2023-08-31T03:47:20;24.77;;;18.05;;
5674;SDS011;2860;54.284;10.158;2023-08-31T03:49:45;24.48;;;18.33;;
5674;SDS011;2860;54.284;10.158;2023-08-31T03:52:11;26.35;;;18.02;;
5674;SDS011;2860;54.284;10.158;2023-08-31T03:54:36;20.85;;;16.58;;
5674;SDS011;2860;54.284;10.158;2023-08-31T03:57:02;24.75;;;17.63;;
5674;SDS011;2860;54.284;10.158;2023-08-31T03:59:27;28.27;;;17.15;;
5674;SDS011;2860;54.284;10.158;2023-08-31T04:01:53;23.30;;;17.60;;
5674;SDS011;2860;54.284;10.158;2023-08-31T04:04:18;22.20;;;16.13;;
5674;SDS011;2860;54.284;10.158;2023-08-31T04:06:44;21.80;;;16.00;;
5674;SDS011;2860;54.284;10.158;2023-08-31T04:09:10;21.50;;;15.00;;
5674;SDS011;2860;54.284;10.158;2023-08-31T04:11:35;24.13;;;15.23;;
5674;SDS011;2860;54.284;10.158;2023-08-31T04:14:01;19.85;;;13.82;;
5674;SDS011;2860;54.284;10.158;2023-08-31T04:16:27;17.45;;;14.10;;
5674;SDS011;2860;54.284;10.158;2023-08-31T04:18:54;18.10;;;14.05;;
5674;SDS011;2860;54.284;10.158;2023-08-31T04:21:20;19.08;;;13.63;;
5674;SDS011;2860;54.284;10.158;2023-08-31T04:23:45;17.00;;;14.45;;
5674;SDS011;2860;54.284;10.158;2023-08-31T04:26:11;18.35;;;13.75;;
5674;SDS011;2860;54.284;10.158;2023-08-31T04:28:38;20.15;;;13.48;;
5674;SDS011;2860;54.284;10.158;2023-08-31T04:31:05;16.77;;;13.60;;
5674;SDS011;2860;54.284;10.158;2023-08-31T04:33:32;19.52;;;13.77;;
5674;SDS011;2860;54.284;10.158;2023-08-31T04:36:03;15.63;;;13.25;;
5674;SDS011;2860;54.284;10.158;2023-08-31T04:38:29;19.40;;;13.90;;
5674;SDS011;2860;54.284;10.158;2023-08-31T04:40:59;17.75;;;13.85;;
5674;SDS011;2860;54.284;10.158;2023-08-31T04:43:25;21.85;;;13.18;;
5674;SDS011;2860;54.284;10.158;2023-08-31T04:45:51;22.30;;;12.88;;
5674;SDS011;2860;54.284;10.158;2023-08-31T04:48:17;14.15;;;12.65;;
5674;SDS011;2860;54.284;10.158;2023-08-31T04:50:43;16.65;;;12.93;;
5674;SDS011;2860;54.284;10.158;2023-08-31T04:53:08;21.05;;;14.10;;
5674;SDS011;2860;54.284;10.158;2023-08-31T04:55:34;22.73;;;13.25;;
5674;SDS011;2860;54.284;10.158;2023-08-31T04:57:59;15.70;;;12.20;;
5674;SDS011;2860;54.284;10.158;2023-08-31T05:00:25;14.90;;;12.68;;
5674;SDS011;2860;54.284;10.158;2023-08-31T05:02:50;19.02;;;12.98;;
5674;SDS011;2860;54.284;10.158;2023-08-31T05:05:16;19.67;;;12.57;;
5674;SDS011;2860;54.284;10.158;2023-08-31T05:07:43;18.17;;;11.35;;
5674;SDS011;2860;54.284;10.158;2023-08-31T05:10:09;16.85;;;12.07;;
5674;SDS011;2860;54.284;10.158;2023-08-31T05:12:34;16.63;;;12.35;;
5674;SDS011;2860;54.284;10.158;2023-08-31T05:15:00;16.52;;;12.68;;
5674;SDS011;2860;54.284;10.158;2023-08-31T05:17:26;21.70;;;12.88;;
5674;SDS011;2860;54.284;10.158;2023-08-31T05:19:51;17.40;;;12.25;;
5674;SDS011;2860;54.284;10.158;2023-08-31T05:22:17;18.45;;;11.93;;
5674;SDS011;2860;54.284;10.158;2023-08-31T05:24:42;14.77;;;10.98;;
5674;SDS011;2860;54.284;10.158;2023-08-31T05:27:08;14.80;;;12.23;;
5674;SDS011;2860;54.284;10.158;2023-08-31T05:29:33;16.08;;;11.82;;
5674;SDS011;2860;54.284;10.158;2023-08-31T05:31:59;15.00;;;11.48;;
5674;SDS011;2860;54.284;10.158;2023-08-31T05:34:24;13.43;;;12.05;;
5674;SDS011;2860;54.284;10.158;2023-08-31T05:36:51;17.67;;;12.63;;
5674;SDS011;2860;54.284;10.158;2023-08-31T05:39:16;14.68;;;12.70;;
5674;SDS011;2860;54.284;10.158;2023-08-31T05:41:42;13.35;;;11.98;;
5674;SDS011;2860;54.284;10.158;2023-08-31T05:44:09;13.90;;;11.20;;
5674;SDS011;2860;54.284;10.158;2023-08-31T05:46:35;12.52;;;10.85;;
5674;SDS011;2860;54.284;10.158;2023-08-31T05:49:00;13.93;;;11.55;;
5674;SDS011;2860;54.284;10.158;2023-08-31T05:51:26;13.82;;;10.65;;
5674;SDS011;2860;54.284;10.158;2023-08-31T05:53:51;11.43;;;10.23;;
5674;SDS011;2860;54.284;10.158;2023-08-31T05:56:18;15.15;;;11.40;;
5674;SDS011;2860;54.284;10.158;2023-08-31T05:58:44;10.57;;;9.57;;
5674;SDS011;2860;54.284;10.158;2023-08-31T06:01:10;11.73;;;9.43;;
5674;SDS011;2860;54.284;10.158;2023-08-31T06:03:35;12.40;;;11.00;;
5674;SDS011;2860;54.284;10.158;2023-08-31T06:06:01;12.02;;;10.93;;
5674;SDS011;2860;54.284;10.158;2023-08-31T06:08:28;9.27;;;8.48;;
5674;SDS011;2860;54.284;10.158;2023-08-31T06:10:55;12.80;;;9.15;;
5674;SDS011;2860;54.284;10.158;2023-08-31T06:13:21;12.30;;;8.98;;
5674;SDS011;2860;54.284;10.158;2023-08-31T06:15:46;10.82;;;9.38;;
5674;SDS011;2860;54.284;10.158;2023-08-31T06:18:12;7.38;;;6.75;;
5674;SDS011;2860;54.284;10.158;2023-08-31T06:20:37;9.55;;;8.35;;
5674;SDS011;2860;54.284;10.158;2023-08-31T06:23:03;8.98;;;8.27;;
5674;SDS011;2860;54.284;10.158;2023-08-31T06:25:29;8.40;;;7.07;;
5674;SDS011;2860;54.284;10.158;2023-08-31T06:27:54;10.68;;;7.40;;
5674;SDS011;2860;54.284;10.158;2023-08-31T06:30:20;11.40;;;6.55;;
5674;SDS011;2860;54.284;10.158;2023-08-31T06:32:46;7.75;;;6.28;;
5674;SDS011;2860;54.284;10.158;2023-08-31T06:35:13;6.20;;;5.70;;
5674;SDS011;2860;54.284;10.158;2023-08-31T06:37:40;6.38;;;5.65;;
5674;SDS011;2860;54.284;10.158;2023-08-31T06:40:08;6.68;;;5.78;;
5674;SDS011;2860;54.284;10.158;2023-08-31T06:42:37;5.53;;;5.20;;
5674;SDS011;2860;54.284;10.158;2023-08-31T06:45:04;6.72;;;4.70;;
5674;SDS011;2860;54.284;10.158;2023-08-31T06:47:31;5.38;;;4.97;;
5674;SDS011;2860;54.284;10.158;2023-08-31T06:49:57;4.70;;;4.35;;
5674;SDS011;2860;54.284;10.158;2023-08-31T06:52:23;4.47;;;4.05;;
5674;SDS011;2860;54.284;10.158;2023-08-31T06:54:49;4.28;;;3.90;;
5674;SDS011;2860;54.284;10.158;2023-08-31T06:57:14;5.32;;;3.30;;
5674;SDS011;2860;54.284;10.158;2023-08-31T06:59:40;3.95;;;3.65;;
5674;SDS011;2860;54.284;10.158;2023-08-31T07:02:05;3.13;;;3.03;;
5674;SDS011;2860;54.284;10.158;2023-08-31T07:04:31;4.10;;;3.83;;
5674;SDS011;2860;54.284;10.158;2023-08-31T07:06:56;4.47;;;3.20;;
5674;SDS011;2860;54.284;10.158;2023-08-31T07:09:22;3.42;;;3.17;;
5674;SDS011;2860;54.284;10.158;2023-08-31T07:11:47;3.20;;;3.00;;
5674;SDS011;2860;54.284;10.158;2023-08-31T07:14:13;3.22;;;2.95;;
5674;SDS011;2860;54.284;10.158;2023-08-31T07:16:38;2.72;;;2.53;;
5674;SDS011;2860;54.284;10.158;2023-08-31T07:19:04;5.22;;;3.10;;
5674;SDS011;2860;54.284;10.158;2023-08-31T07:21:29;3.15;;;3.00;;
5674;SDS011;2860;54.284;10.158;2023-08-31T07:23:55;2.38;;;2.10;;
5674;SDS011;2860;54.284;10.158;2023-08-31T07:26:21;8.15;;;3.05;;
5674;SDS011;2860;54.284;10.158;2023-08-31T07:28:46;4.55;;;2.25;;
5674;SDS011;2860;54.284;10.158;2023-08-31T07:31:12;5.05;;;2.55;;
5674;SDS011;2860;54.284;10.158;2023-08-31T07:33:38;3.72;;;2.45;;
5674;SDS011;2860;54.284;10.158;2023-08-31T07:36:04;2.53;;;1.70;;
5674;SDS011;2860;54.284;10.158;2023-08-31T07:38:31;5.90;;;2.25;;
5674;SDS011;2860;54.284;10.158;2023-08-31T07:40:57;1.67;;;1.67;;
5674;SDS011;2860;54.284;10.158;2023-08-31T07:43:23;2.42;;;2.17;;
5674;SDS011;2860;54.284;10.158;2023-08-31T07:45:50;2.08;;;1.55;;
5674;SDS011;2860;54.284;10.158;2023-08-31T07:48:16;1.77;;;1.77;;
5674;SDS011;2860;54.284;10.158;2023-08-31T07:50:42;1.35;;;1.35;;
5674;SDS011;2860;54.284;10.158;2023-08-31T07:53:08;1.33;;;1.10;;
5674;SDS011;2860;54.284;10.158;2023-08-31T07:55:33;4.20;;;1.52;;
5674;SDS011;2860;54.284;10.158;2023-08-31T07:58:00;1.90;;;1.60;;
5674;SDS011;2860;54.284;10.158;2023-08-31T08:00:26;1.55;;;1.42;;
5674;SDS011;2860;54.284;10.158;2023-08-31T08:02:51;1.65;;;1.17;;
5674;SDS011;2860;54.284;10.158;2023-08-31T08:05:17;1.95;;;1.77;;
5674;SDS011;2860;54.284;10.158;2023-08-31T08:07:42;1.13;;;1.02;;
5674;SDS011;2860;54.284;10.158;2023-08-31T08:10:09;2.90;;;1.10;;
5674;SDS011;2860;54.284;10.158;2023-08-31T08:12:38;3.00;;;1.35;;
5674;SDS011;2860;54.284;10.158;2023-08-31T08:15:05;2.40;;;1.17;;
5674;SDS011;2860;54.284;10.158;2023-08-31T08:17:33;3.30;;;0.80;;
5674;SDS011;2860;54.284;10.158;2023-08-31T08:19:58;0.85;;;0.85;;
5674;SDS011;2860;54.284;10.158;2023-08-31T08:22:24;1.10;;;1.08;;
5674;SDS011;2860;54.284;10.158;2023-08-31T08:24:50;0.77;;;0.70;;
5674;SDS011;2860;54.284;10.158;2023-08-31T08:27:15;0.88;;;0.88;;
5674;SDS011;2860;54.284;10.158;2023-08-31T08:29:43;1.58;;;0.95;;
5674;SDS011;2860;54.284;10.158;2023-08-31T08:32:08;1.30;;;0.90;;
5674;SDS011;2860;54.284;10.158;2023-08-31T08:34:34;2.22;;;0.52;;
5674;SDS011;2860;54.284;10.158;2023-08-31T08:37:00;0.90;;;0.90;;
5674;SDS011;2860;54.284;10.158;2023-08-31T08:39:25;2.08;;;0.70;;
5674;SDS011;2860;54.284;10.158;2023-08-31T08:41:51;1.30;;;0.80;;
5674;SDS011;2860;54.284;10.158;2023-08-31T08:44:19;0.60;;;0.60;;
5674;SDS011;2860;54.284;10.158;2023-08-31T08:46:50;0.73;;;0.65;;
5674;SDS011;2860;54.284;10.158;2023-08-31T08:49:17;0.85;;;0.50;;
5674;SDS011;2860;54.284;10.158;2023-08-31T08:51:44;2.35;;;0.60;;
5674;SDS011;2860;54.284;10.158;2023-08-31T08:54:12;1.90;;;0.70;;
5674;SDS011;2860;54.284;10.158;2023-08-31T08:56:38;0.95;;;0.70;;
5674;SDS011;2860;54.284;10.158;2023-08-31T08:59:04;2.33;;;0.90;;
5674;SDS011;2860;54.284;10.158;2023-08-31T09:01:30;0.70;;;0.70;;
5674;SDS011;2860;54.284;10.158;2023-08-31T09:03:58;0.65;;;0.60;;
5674;SDS011;2860;54.284;10.158;2023-08-31T09:06:23;3.85;;;0.73;;
5674;SDS011;2860;54.284;10.158;2023-08-31T09:08:55;3.80;;;1.00;;
5674;SDS011;2860;54.284;10.158;2023-08-31T09:11:21;1.00;;;0.70;;
5674;SDS011;2860;54.284;10.158;2023-08-31T09:13:48;1.17;;;0.70;;
5674;SDS011;2860;54.284;10.158;2023-08-31T09:16:24;0.93;;;0.63;;
5674;SDS011;2860;54.284;10.158;2023-08-31T09:18:54;2.25;;;0.70;;
5674;SDS011;2860;54.284;10.158;2023-08-31T09:21:20;1.70;;;0.85;;
5674;SDS011;2860;54.284;10.158;2023-08-31T09:23:47;0.82;;;0.80;;
5674;SDS011;2860;54.284;10.158;2023-08-31T09:26:20;1.65;;;0.57;;
5674;SDS011;2860;54.284;10.158;2023-08-31T09:28:46;1.23;;;1.02;;
5674;SDS011;2860;54.284;10.158;2023-08-31T09:31:11;1.35;;;0.90;;
5674;SDS011;2860;54.284;10.158;2023-08-31T09:33:37;1.08;;;0.90;;
5674;SDS011;2860;54.284;10.158;2023-08-31T09:36:03;1.98;;;0.93;;
5674;SDS011;2860;54.284;10.158;2023-08-31T09:38:31;4.05;;;0.80;;
5674;SDS011;2860;54.284;10.158;2023-08-31T09:41:05;1.50;;;0.70;;
5674;SDS011;2860;54.284;10.158;2023-08-31T09:43:31;4.05;;;0.77;;
5674;SDS011;2860;54.284;10.158;2023-08-31T09:45:57;3.35;;;0.52;;
5674;SDS011;2860;54.284;10.158;2023-08-31T09:48:24;1.20;;;0.80;;
5674;SDS011;2860;54.284;10.158;2023-08-31T09:50:51;2.80;;;0.80;;
5674;SDS011;2860;54.284;10.158;2023-08-31T09:53:17;2.53;;;0.60;;
5674;SDS011;2860;54.284;10.158;2023-08-31T09:55:46;1.70;;;0.50;;
5674;SDS011;2860;54.284;10.158;2023-08-31T09:58:13;0.80;;;0.80;;
5674;SDS011;2860;54.284;10.158;2023-08-31T10:00:42;2.22;;;0.60;;
5674;SDS011;2860;54.284;10.158;2023-08-31T10:03:08;3.00;;;0.55;;
5674;SDS011;2860;54.284;10.158;2023-08-31T10:05:39;2.38;;;0.50;;
5674;SDS011;2860;54.284;10.158;2023-08-31T10:08:05;1.05;;;0.70;;
5674;SDS011;2860;54.284;10.158;2023-08-31T10:10:32;2.30;;;0.75;;
5674;SDS011;2860;54.284;10.158;2023-08-31T10:13:00;0.50;;;0.50;;
5674;SDS011;2860;54.284;10.158;2023-08-31T10:15:32;0.50;;;0.50;;
5674;SDS011;2860;54.284;10.158;2023-08-31T10:17:59;0.65;;;0.65;;
5674;SDS011;2860;54.284;10.158;2023-08-31T10:20:26;2.88;;;0.65;;
5674;SDS011;2860;54.284;10.158;2023-08-31T10:23:05;0.50;;;0.50;;
5674;SDS011;2860;54.284;10.158;2023-08-31T10:28:21;1.55;;;0.82;;
5674;SDS011;2860;54.284;10.158;2023-08-31T10:31:00;2.13;;;0.70;;
5674;SDS011;2860;54.284;10.158;2023-08-31T10:33:28;1.75;;;0.73;;
5674;SDS011;2860;54.284;10.158;2023-08-31T10:36:19;0.68;;;0.68;;
5674;SDS011;2860;54.284;10.158;2023-08-31T10:38:46;0.82;;;0.82;;
5674;SDS011;2860;54.284;10.158;2023-08-31T10:41:24;1.05;;;0.70;;
5674;SDS011;2860;54.284;10.158;2023-08-31T10:43:54;0.98;;;0.85;;
5674;SDS011;2860;54.284;10.158;2023-08-31T10:46:36;1.45;;;0.40;;
5674;SDS011;2860;54.284;10.158;2023-08-31T10:51:39;0.60;;;0.52;;
5674;SDS011;2860;54.284;10.158;2023-08-31T10:59:23;0.95;;;0.60;;
5674;SDS011;2860;54.284;10.158;2023-08-31T11:04:22;2.50;;;0.80;;
5674;SDS011;2860;54.284;10.158;2023-08-31T11:09:42;3.08;;;0.70;;
5674;SDS011;2860;54.284;10.158;2023-08-31T11:12:09;3.20;;;0.60;;
5674;SDS011;2860;54.284;10.158;2023-08-31T11:14:35;1.30;;;0.90;;
5674;SDS011;2860;54.284;10.158;2023-08-31T11:17:01;0.55;;;0.52;;
5674;SDS011;2860;54.284;10.158;2023-08-31T11:19:29;4.60;;;1.00;;
5674;SDS011;2860;54.284;10.158;2023-08-31T11:21:54;0.52;;;0.47;;
5674;SDS011;2860;54.284;10.158;2023-08-31T11:24:20;0.75;;;0.50;;
5674;SDS011;2860;54.284;10.158;2023-08-31T11:26:49;0.60;;;0.60;;
5674;SDS011;2860;54.284;10.158;2023-08-31T11:29:15;1.30;;;0.55;;
5674;SDS011;2860;54.284;10.158;2023-08-31T11:31:41;2.40;;;0.50;;
5674;SDS011;2860;54.284;10.158;2023-08-31T11:34:07;0.60;;;0.60;;
5674;SDS011;2860;54.284;10.158;2023-08-31T11:36:37;0.60;;;0.60;;
5674;SDS011;2860;54.284;10.158;2023-08-31T11:39:03;1.25;;;0.68;;
5674;SDS011;2860;54.284;10.158;2023-08-31T11:41:35;0.45;;;0.45;;
5674;SDS011;2860;54.284;10.158;2023-08-31T11:44:03;0.50;;;0.50;;
5674;SDS011;2860;54.284;10.158;2023-08-31T11:46:30;0.40;;;0.40;;
5674;SDS011;2860;54.284;10.158;2023-08-31T11:48:56;0.40;;;0.40;;
5674;SDS011;2860;54.284;10.158;2023-08-31T11:51:23;0.40;;;0.40;;
5674;SDS011;2860;54.284;10.158;2023-08-31T11:53:49;2.03;;;0.50;;
5674;SDS011;2860;54.284;10.158;2023-08-31T11:56:15;1.08;;;0.50;;
5674;SDS011;2860;54.284;10.158;2023-08-31T11:58:41;0.70;;;0.60;;
5674;SDS011;2860;54.284;10.158;2023-08-31T12:01:07;1.75;;;0.60;;
5674;SDS011;2860;54.284;10.158;2023-08-31T12:03:42;0.55;;;0.55;;
5674;SDS011;2860;54.284;10.158;2023-08-31T12:06:09;0.43;;;0.43;;
5674;SDS011;2860;54.284;10.158;2023-08-31T12:08:36;0.90;;;0.80;;
5674;SDS011;2860;54.284;10.158;2023-08-31T12:11:03;0.60;;;0.60;;
5674;SDS011;2860;54.284;10.158;2023-08-31T12:13:31;0.85;;;0.85;;
5674;SDS011;2860;54.284;10.158;2023-08-31T12:15:57;0.77;;;0.77;;
5674;SDS011;2860;54.284;10.158;2023-08-31T12:18:23;0.60;;;0.60;;
5674;SDS011;2860;54.284;10.158;2023-08-31T12:20:51;1.63;;;0.70;;
5674;SDS011;2860;54.284;10.158;2023-08-31T12:23:18;0.77;;;0.50;;
5674;SDS011;2860;54.284;10.158;2023-08-31T12:25:49;0.93;;;0.40;;
5674;SDS011;2860;54.284;10.158;2023-08-31T12:28:19;0.98;;;0.40;;
5674;SDS011;2860;54.284;10.158;2023-08-31T12:30:49;1.55;;;0.60;;
5674;SDS011;2860;54.284;10.158;2023-08-31T12:33:19;2.13;;;0.93;;
5674;SDS011;2860;54.284;10.158;2023-08-31T12:35:46;0.50;;;0.50;;
5674;SDS011;2860;54.284;10.158;2023-08-31T12:38:12;1.25;;;0.35;;
5674;SDS011;2860;54.284;10.158;2023-08-31T12:40:39;0.38;;;0.38;;
5674;SDS011;2860;54.284;10.158;2023-08-31T12:43:05;1.48;;;0.43;;
5674;SDS011;2860;54.284;10.158;2023-08-31T12:45:31;1.65;;;0.30;;
5674;SDS011;2860;54.284;10.158;2023-08-31T12:47:58;0.30;;;0.30;;
5674;SDS011;2860;54.284;10.158;2023-08-31T12:50:24;0.20;;;0.20;;
5674;SDS011;2860;54.284;10.158;2023-08-31T12:52:49;0.40;;;0.30;;
5674;SDS011;2860;54.284;10.158;2023-08-31T12:55:15;0.75;;;0.40;;
5674;SDS011;2860;54.284;10.158;2023-08-31T12:57:41;1.25;;;0.30;;
5674;SDS011;2860;54.284;10.158;2023-08-31T13:00:07;0.30;;;0.30;;
5674;SDS011;2860;54.284;10.158;2023-08-31T13:02:40;0.50;;;0.35;;
5674;SDS011;2860;54.284;10.158;2023-08-31T13:05:07;1.10;;;0.55;;
5674;SDS011;2860;54.284;10.158;2023-08-31T13:07:34;0.70;;;0.70;;
5674;SDS011;2860;54.284;10.158;2023-08-31T13:10:02;0.93;;;0.93;;
5674;SDS011;2860;54.284;10.158;2023-08-31T13:12:31;0.98;;;0.98;;
5674;SDS011;2860;54.284;10.158;2023-08-31T13:14:58;1.67;;;0.85;;
5674;SDS011;2860;54.284;10.158;2023-08-31T13:17:27;1.40;;;1.00;;
5674;SDS011;2860;54.284;10.158;2023-08-31T13:19:53;1.60;;;1.60;;
5674;SDS011;2860;54.284;10.158;2023-08-31T13:22:22;2.75;;;2.13;;
5674;SDS011;2860;54.284;10.158;2023-08-31T13:24:49;2.10;;;2.10;;
5674;SDS011;2860;54.284;10.158;2023-08-31T13:27:15;2.30;;;2.20;;
5674;SDS011;2860;54.284;10.158;2023-08-31T13:29:41;3.40;;;3.30;;
5674;SDS011;2860;54.284;10.158;2023-08-31T13:32:06;2.50;;;2.50;;
5674;SDS011;2860;54.284;10.158;2023-08-31T13:34:32;1.48;;;1.48;;
5674;SDS011;2860;54.284;10.158;2023-08-31T13:36:58;1.50;;;1.40;;
5674;SDS011;2860;54.284;10.158;2023-08-31T13:39:25;0.70;;;0.70;;
5674;SDS011;2860;54.284;10.158;2023-08-31T13:41:51;0.70;;;0.70;;
5674;SDS011;2860;54.284;10.158;2023-08-31T13:44:18;0.55;;;0.55;;
5674;SDS011;2860;54.284;10.158;2023-08-31T13:46:45;0.85;;;0.60;;
5674;SDS011;2860;54.284;10.158;2023-08-31T13:49:10;1.15;;;0.68;;
5674;SDS011;2860;54.284;10.158;2023-08-31T13:51:36;2.10;;;0.85;;
5674;SDS011;2860;54.284;10.158;2023-08-31T13:54:02;1.70;;;1.60;;
5674;SDS011;2860;54.284;10.158;2023-08-31T13:56:32;0.88;;;0.88;;
5674;SDS011;2860;54.284;10.158;2023-08-31T13:59:00;0.85;;;0.82;;
5674;SDS011;2860;54.284;10.158;2023-08-31T14:01:26;0.50;;;0.50;;
5674;SDS011;2860;54.284;10.158;2023-08-31T14:03:51;0.40;;;0.40;;
5674;SDS011;2860;54.284;10.158;2023-08-31T14:06:17;1.20;;;0.50;;
5674;SDS011;2860;54.284;10.158;2023-08-31T14:08:42;0.40;;;0.40;;
5674;SDS011;2860;54.284;10.158;2023-08-31T14:11:08;0.40;;;0.40;;
5674;SDS011;2860;54.284;10.158;2023-08-31T14:13:33;0.47;;;0.47;;
5674;SDS011;2860;54.284;10.158;2023-08-31T14:15:59;2.28;;;0.50;;
5674;SDS011;2860;54.284;10.158;2023-08-31T14:18:28;0.60;;;0.60;;
5674;SDS011;2860;54.284;10.158;2023-08-31T14:20:55;2.33;;;0.60;;
5674;SDS011;2860;54.284;10.158;2023-08-31T14:23:21;1.58;;;0.77;;
5674;SDS011;2860;54.284;10.158;2023-08-31T14:25:47;1.27;;;0.70;;
5674;SDS011;2860;54.284;10.158;2023-08-31T14:28:12;13.07;;;9.00;;
5674;SDS011;2860;54.284;10.158;2023-08-31T14:30:38;0.50;;;0.50;;
5674;SDS011;2860;54.284;10.158;2023-08-31T14:33:04;5.32;;;0.90;;
5674;SDS011;2860;54.284;10.158;2023-08-31T14:35:30;0.50;;;0.50;;
5674;SDS011;2860;54.284;10.158;2023-08-31T14:37:56;0.52;;;0.52;;
5674;SDS011;2860;54.284;10.158;2023-08-31T14:40:22;0.93;;;0.60;;
5674;SDS011;2860;54.284;10.158;2023-08-31T14:42:48;0.77;;;0.77;;
5674;SDS011;2860;54.284;10.158;2023-08-31T14:45:14;1.27;;;1.17;;
5674;SDS011;2860;54.284;10.158;2023-08-31T14:47:39;1.25;;;1.20;;
5674;SDS011;2860;54.284;10.158;2023-08-31T14:50:05;0.80;;;0.80;;
5674;SDS011;2860;54.284;10.158;2023-08-31T14:52:32;2.05;;;1.17;;
5674;SDS011;2860;54.284;10.158;2023-08-31T14:54:57;1.05;;;1.05;;
5674;SDS011;2860;54.284;10.158;2023-08-31T14:57:23;1.15;;;1.10;;
5674;SDS011;2860;54.284;10.158;2023-08-31T14:59:48;0.90;;;0.90;;
5674;SDS011;2860;54.284;10.158;2023-08-31T15:02:18;1.20;;;1.00;;
5674;SDS011;2860;54.284;10.158;2023-08-31T15:04:47;2.47;;;1.20;;
5674;SDS011;2860;54.284;10.158;2023-08-31T15:07:17;3.83;;;0.90;;
5674;SDS011;2860;54.284;10.158;2023-08-31T15:09:43;3.13;;;1.15;;
5674;SDS011;2860;54.284;10.158;2023-08-31T15:12:08;1.35;;;1.02;;